Climatologie mensuelle pour octobre 2005

Valeurs journalières de 0h à 0h
mois : année :
Jour Température Vent Pluie Humidité Pression Ensoleillement (% max) DJUC DJUF
min moy max Vent moyen (rafale max) Secteur
1 0 °C 12.4 °C 0 °C 0.5 km/h ( 3.57000004053116 km/h ) SE 16.1 mm 77 % 1021.2 hPa 0:00 h   (0%) 5.6 0
2 0 °C 11.4 °C 0 °C 2 km/h ( 21.875 km/h ) SSE 19.7 mm 78 % 1020.1 hPa 0:00 h   (0%) 6.6 0
3 0 °C 10.6 °C 0 °C 9.6 km/h ( 26.0299999237061 km/h ) SE 16.1 mm 78 % 1021.1 hPa 0:00 h   (0%) 7.4 0
4 0 °C 12.4 °C 0 °C 2 km/h ( 18.689999961853 km/h ) SE 1 mm 75 % 1019.4 hPa 0:00 h   (0%) 5.6 0
5 0 °C 12.9 °C 0 °C 1 km/h ( 6.53999993801117 km/h ) SSE 0 mm 75 % 1020.9 hPa 0:00 h   (0%) 5.1 0
6 0 °C 13.5 °C 0 °C 0.6 km/h ( 6.9300000667572 km/h ) SE 0 mm 75 % 1021.1 hPa 0:00 h   (0%) 4.5 0
7 0 °C 11.8 °C 0 °C 0.4 km/h ( 2.98000001907349 km/h ) SSE 0 mm 75 % 1019.9 hPa 0:00 h   (0%) 6.2 0
8 0 °C 11.6 °C 0 °C 0.8 km/h ( 5.58000001907349 km/h ) SSE 0 mm 76 % 1020.9 hPa 0:00 h   (0%) 6.4 0
9 0 °C 11.6 °C 0 °C 0.8 km/h ( 4.17000000476837 km/h ) SSE 0 mm 75 % 1023.4 hPa 0:00 h   (0%) 6.4 0
10 0 °C 11.7 °C 0 °C 0.4 km/h ( 3.38000011444092 km/h ) SSE 0 mm 76 % 1022.8 hPa 0:00 h   (0%) 6.3 0
11 0 °C 12.4 °C 0 °C 0.5 km/h ( 3.17000000476837 km/h ) SSE 0 mm 77 % 1019.7 hPa 0:00 h   (0%) 5.6 0
12 0 °C 12.1 °C 0 °C 0.4 km/h ( 4.63999997377396 km/h ) SSE 0 mm 75 % 1018.9 hPa 0:00 h   (0%) 5.9 0
13 0 °C 12.2 °C 0 °C 0.4 km/h ( 6.05 km/h ) SSE 0 mm 74 % 1019 hPa 0:00 h   (0%) 5.8 0
14 0 °C 11.6 °C 0 °C 1 km/h ( 6.66999983787537 km/h ) SSE 0 mm 74 % 1023.9 hPa 0:00 h   (0%) 6.4 0
15 0 °C 11 °C 0 °C 0.8 km/h ( 4.63999998569489 km/h ) SSE 0 mm 75 % 1025.9 hPa 0:00 h   (0%) 7 0
16 0 °C 10.6 °C 0 °C 0.6 km/h ( 3.99999996423721 km/h ) SE 0 mm 79 % 1024.4 hPa 0:00 h   (0%) 7.4 0
17 0 °C 11 °C 0 °C 2.8 km/h ( 11.2099999427795 km/h ) NE 0 mm 80 % 1021 hPa 0:00 h   (0%) 7 0
18 0 °C 11 °C 0 °C 1.4 km/h ( 7.45999994277954 km/h ) NE 0.5 mm 77 % 1019.2 hPa 0:00 h   (0%) 7 0
19 0 °C 11.9 °C 0 °C 0.1 km/h ( 1.61000000238419 km/h ) SE 6.2 mm 83 % 1018.3 hPa 0:00 h   (0%) 6.1 0
20 0 °C 13.4 °C 0 °C 0.1 km/h ( 2.84000000655651 km/h ) SE 0 mm 83 % 1015.9 hPa 0:00 h   (0%) 4.6 0
21 0 °C 13.5 °C 0 °C 0.7 km/h ( 10.2800001144409 km/h ) SE 3.1 mm 82 % 1011.8 hPa 0:00 h   (0%) 4.5 0
22 0 °C 14.9 °C 0 °C 1.4 km/h ( 14.5 km/h ) SSE 2.6 mm 78 % 1011.2 hPa 0:00 h   (0%) 3.1 0
23 0 °C 14.5 °C 0 °C 1.4 km/h ( 20.0800000190735 km/h ) SE 24.3 mm 77 % 1017.4 hPa 0:00 h   (0%) 3.5 0
24 0 °C 11.6 °C 0 °C 0.8 km/h ( 7.2300000667572 km/h ) SE 0 mm 79 % 1022.1 hPa 0:00 h   (0%) 6.4 0
25 0 °C 13.5 °C 0 °C 2.5 km/h ( 19.5799999237061 km/h ) SSE 0 mm 71 % 1020.5 hPa 0:00 h   (0%) 4.5 0
26 0 °C 12.5 °C 0 °C 0.5 km/h ( 4.82000008225441 km/h ) SSE 0 mm 72 % 1022.8 hPa 0:00 h   (0%) 5.5 0
27 0 °C 11 °C 0 °C 0.3 km/h ( 2.50000007152557 km/h ) SSE 0 mm 75 % 1022 hPa 0:00 h   (0%) 7 0
28 0 °C 10.5 °C 0 °C 0.4 km/h ( 3.04000005722046 km/h ) SE 0 mm 77 % 1021.6 hPa 0:00 h   (0%) 7.5 0
29 0 °C 11.3 °C 0 °C 0.4 km/h ( 5.07000007629395 km/h ) SE 0 mm 76 % 1020.8 hPa 0:00 h   (0%) 6.7 0
30 0 °C 10.8 °C 0 °C 0.3 km/h ( 2.73999996185303 km/h ) SSE 0 mm 76 % 1019.6 hPa 0:00 h   (0%) 7.2 0
31 0 °C 11.3 °C 0 °C 0.3 km/h ( 2.50000004768372 km/h ) SE 0 mm 78 % 1015.6 hPa 0:00 h   (0%) 6.7 0
0 °C 12.0 °C 0 °C 1.1 km/h (26.0299999237061 km/h) 89.6 mm 77 % 1020.1 hPa 0:00 h 185.5 0.0

Température moyenne mensuelle : 12.0 °C
Moyenne des Tn : 0.0 °C
Tn mensuelle : 0 °C
Moyenne des Tx : 0.0 °C
Tx mensuelle : 0 °C

Vent moyen pour le mois : 1.1 km/h de secteur
Rafale maxi : 26.0299999237061 km/h

Pluviometrie mensuelle : 89.6 mm avec un maximum journalier de 24.3 mm

Nombre de jours :

  • avec gelée : 31
  • avec forte gelée (<=-5): 0
  • sans dégel : 31
  • avec chaleur (>=30): 0
  • avec canicule (>=35): 0
  • avec pluie : 9
  • avec plus de 1mm : 8
  • avec plus de 5mm : 5
  • avec plus de 10mm : 4